Corydon, Iowa
Current Conditions -  °F | °C
As of 10:15 AM on Wednesday 26 Nov 2014 (Local Time) from KCNC Reporting Station
Light Snow Light Snow  
Wind Chill: 23°   Ceiling: 600
Heat Index: 32°   Visibility: 1.7mi
Dew Point: 30°   Wind: 12mph
Humidity: 93%   Direction: 110°ESE
Pressure: 29.89"   Gusts: NA
Location:  40.76°N, 93.32°W
Report Text: KCNC 261615Z AUTO 11010KT 1 3/4SM -SN OVC006 M00/M01 A2989 RMK AO2
Loading
Personal Weather Stations






























Interactive Weather Map New forecast layout! Learn more

10-Day Weather Forecast

Advertisements
Track Severe Weather on mobile